»·PEaware :: VRD2 KSFO-KLAX

VRD2 :: KSFO-KLAX

FLIGHT INFORMATION

Flight Status: Arrived
Operator:
Virgin America
More flights by this operator :: More flights under this callsign
Pilot: Taylor M. (19061)
Aircraft: AIRBUS A320
(A320)
More flights by this aircraft type
Origin: KSFO San Francisco Intl
United States
Destination: KLAX Los Angeles Intl
United States
More flights between these airports :: More routes between these airports
Route: +SSTIK3 EBAYE BURGL IRNMN1
File this flight plan on PilotEdge
Remarks: PBN / A1B1C1D1O1S1 NAV / RNVD1E2A1 DAT / V DOF / 180509 REG / N320SB EET / KZAK0021 KZLA0025 RMK / NRP SIMBRIEF
Altitude:
(Current/Filed)
35,000ft
Speed:
(Current/Filed)
436kts
Departed: 08-May-18 06:24 PM
Arrived: 08-May-18 07:30 PM
Distance/Time
Traveled:
293nm/1:05
Distance/Time
To Go:
Arrived

Flight Plot

Page will automatically refresh every two minutes.

Flight plan parsing failed; only flown route is shown


Map Options




Map Legend


Flown Route
Filed Route
Departure Airport
Arrival Airport
Navaid (VOR, NDB)
Fix

Horizontal Profiles

Position Reports

Time Latitude Longitude Heading Altitude Ground
Speed
08-May-18 18:04 37.617486 -122.380194 270 32ft 0kts
08-May-18 18:05 37.617486 -122.380194 270 32ft 0kts
08-May-18 18:06 37.617486 -122.380194 270 32ft 0kts
08-May-18 18:07 37.617486 -122.380194 270 32ft 0kts
08-May-18 18:08 37.617486 -122.380194 270 32ft 0kts
08-May-18 18:09 37.617486 -122.380194 270 32ft 0kts
08-May-18 18:10 37.617486 -122.380194 270 32ft 0kts
08-May-18 18:11 37.617486 -122.380194 270 32ft 0kts
08-May-18 18:12 37.617486 -122.380194 270 32ft 0kts
08-May-18 18:13 37.617486 -122.380194 270 32ft 0kts
08-May-18 18:14 37.617486 -122.380194 270 32ft 0kts
08-May-18 18:15 37.617486 -122.380194 270 32ft 0kts
08-May-18 18:16 37.617485 -122.380089 270 32ft 4kts
08-May-18 18:17 37.617479 -122.379605 271 31ft 0kts
08-May-18 18:18 37.617351 -122.379885 154 32ft 3kts
08-May-18 18:19 37.614150 -122.381351 210 32ft 24kts
08-May-18 18:20 37.610283 -122.383911 209 32ft 11kts
08-May-18 18:21 37.609079 -122.384252 92 32ft 5kts
08-May-18 18:22 37.609129 -122.383681 81 32ft 0kts
08-May-18 18:23 37.609872 -122.381682 14 32ft 13kts
08-May-18 18:24 37.639604 -122.361339 14 1294ft 179kts
08-May-18 18:25 37.693195 -122.363081 324 3894ft 227kts
08-May-18 18:26 37.688843 -122.434770 209 6428ft 269kts
08-May-18 18:27 37.617500 -122.450945 191 9444ft 279kts
08-May-18 18:28 37.553452 -122.462616 191 10063ft 277kts
08-May-18 18:29 37.477414 -122.454892 146 10724ft 317kts
08-May-18 18:30 37.412119 -122.365385 134 12039ft 374kts
08-May-18 18:31 37.342893 -122.267559 135 14151ft 387kts
08-May-18 18:32 37.271525 -122.167641 136 16011ft 399kts
08-May-18 18:33 37.197167 -122.063660 137 17772ft 410kts
08-May-18 18:34 37.121360 -121.958042 137 19386ft 419kts
08-May-18 18:35 37.043745 -121.850300 137 20662ft 432kts
08-May-18 18:36 36.962484 -121.737848 137 21856ft 446kts
08-May-18 18:37 36.883231 -121.628522 137 23058ft 453kts
08-May-18 18:38 36.798024 -121.511269 137 24245ft 462kts
08-May-18 18:39 36.711237 -121.392509 138 25362ft 469kts
08-May-18 18:40 36.629203 -121.280630 139 26349ft 473kts
08-May-18 18:41 36.540192 -121.159595 138 27230ft 480kts
08-May-18 18:42 36.449070 -121.036135 138 28083ft 486kts
08-May-18 18:43 36.357602 -120.912687 137 28818ft 493kts
08-May-18 18:44 36.268588 -120.792911 138 30060ft 487kts
08-May-18 18:45 36.180848 -120.675335 139 31216ft 481kts
08-May-18 18:46 36.091254 -120.555708 139 32375ft 475kts
08-May-18 18:47 36.002899 -120.438162 140 33407ft 470kts
08-May-18 18:48 35.920425 -120.328808 141 34324ft 464kts
08-May-18 18:49 35.831799 -120.228373 152 34997ft 449kts
08-May-18 18:50 35.730411 -120.140649 153 35123ft 448kts
08-May-18 18:51 35.628704 -120.052831 153 35127ft 448kts
08-May-18 18:52 35.528337 -119.966493 153 35129ft 449kts
08-May-18 18:53 35.433267 -119.884928 153 35127ft 449kts
08-May-18 18:54 35.331513 -119.797899 153 35114ft 449kts
08-May-18 18:55 35.231009 -119.712709 152 34961ft 437kts
08-May-18 18:56 35.135911 -119.631062 152 33391ft 414kts
08-May-18 18:57 35.042566 -119.551519 152 31406ft 410kts
08-May-18 18:58 34.950952 -119.476169 152 29454ft 406kts
08-May-18 18:59 34.879481 -119.418623 149 28227ft 397kts
08-May-18 19:00 34.821303 -119.368624 150 27731ft 375kts
08-May-18 19:01 34.745007 -119.303888 150 26883ft 350kts
08-May-18 19:02 34.662933 -119.234817 148 23186ft 381kts
08-May-18 19:03 34.574491 -119.160484 146 18637ft 409kts
08-May-18 19:04 34.480232 -119.081386 145 14777ft 416kts
08-May-18 19:05 34.392600 -119.007832 144 13859ft 373kts
08-May-18 19:06 34.312203 -118.940653 145 13047ft 336kts
08-May-18 19:07 34.240369 -118.879484 141 12306ft 303kts
08-May-18 19:08 34.176970 -118.821339 142 11608ft 276kts
08-May-18 19:09 34.121261 -118.762731 137 10919ft 264kts
08-May-18 19:10 34.066382 -118.703180 137 9734ft 275kts
08-May-18 19:10 34.029416 -118.655527 100 8738ft 254kts
08-May-18 19:11 34.021152 -118.571698 94 8101ft 255kts
08-May-18 19:12 34.014168 -118.496723 95 7561ft 256kts
08-May-18 19:14 34.016441 -118.417915 77 6642ft 252kts
08-May-18 19:15 34.025688 -118.329181 82 5540ft 248kts
08-May-18 19:16 34.033949 -118.253057 82 5009ft 248kts
08-May-18 19:17 34.041347 -118.184856 82 5008ft 247kts
08-May-18 19:18 34.049906 -118.104107 82 5009ft 247kts
08-May-18 19:19 34.058147 -118.023062 82 5013ft 248kts
08-May-18 19:20 34.021207 -117.972756 195 5022ft 234kts
08-May-18 19:21 33.964823 -117.998578 202 5013ft 230kts
08-May-18 19:22 33.930776 -118.047626 283 4531ft 230kts
08-May-18 19:23 33.956714 -118.117188 292 3940ft 227kts
08-May-18 19:24 33.974707 -118.185144 262 3335ft 206kts
08-May-18 19:25 33.967949 -118.250345 260 2601ft 205kts
08-May-18 19:26 33.962184 -118.305276 260 1704ft 181kts
08-May-18 19:27 33.957068 -118.354197 261 911ft 137kts
08-May-18 19:28 33.954116 -118.382693 261 477ft 137kts
08-May-18 19:29 33.951314 -118.409853 262 124ft 120kts
08-May-18 19:30 33.948934 -118.420112 234 121ft 13kts
08-May-18 19:31 33.948853 -118.420248 234 121ft 0kts
08-May-18 19:32 33.948785 -118.420361 234 121ft 3kts
08-May-18 19:33 33.947390 -118.422653 234 117ft 2kts
08-May-18 19:34 33.946007 -118.424824 209 113ft 5kts
08-May-18 19:35 33.946034 -118.424563 26 114ft 8kts
08-May-18 19:36 33.947222 -118.422127 113 118ft 18kts
08-May-18 19:37 33.947171 -118.418346 93 121ft 30kts
08-May-18 19:38 33.943688 -118.417800 176 117ft 14kts
08-May-18 19:39 33.942715 -118.418977 255 117ft 6kts

Navigation Log

Ident Type
Flight plan parsing failed, navigation log unavailable